sensor_id;sensor_type;location;lat;lon;timestamp;P1;durP1;ratioP1;P2;durP2;ratioP2
26588;SDS011;14235;48.532;8.722;2024-01-06T00:01:39;4.43;;;3.97;;
26588;SDS011;14235;48.532;8.722;2024-01-06T00:04:05;5.35;;;4.20;;
26588;SDS011;14235;48.532;8.722;2024-01-06T00:06:31;6.35;;;4.40;;
26588;SDS011;14235;48.532;8.722;2024-01-06T00:08:57;7.55;;;4.47;;
26588;SDS011;14235;48.532;8.722;2024-01-06T00:11:23;4.70;;;3.88;;
26588;SDS011;14235;48.532;8.722;2024-01-06T00:13:49;5.00;;;3.95;;
26588;SDS011;14235;48.532;8.722;2024-01-06T00:16:18;4.80;;;4.28;;
26588;SDS011;14235;48.532;8.722;2024-01-06T00:18:45;4.82;;;3.45;;
26588;SDS011;14235;48.532;8.722;2024-01-06T00:21:11;5.55;;;3.97;;
26588;SDS011;14235;48.532;8.722;2024-01-06T00:23:37;5.45;;;4.00;;
26588;SDS011;14235;48.532;8.722;2024-01-06T00:26:03;5.63;;;4.00;;
26588;SDS011;14235;48.532;8.722;2024-01-06T00:28:29;6.68;;;4.18;;
26588;SDS011;14235;48.532;8.722;2024-01-06T00:30:55;4.60;;;4.13;;
26588;SDS011;14235;48.532;8.722;2024-01-06T00:33:21;8.65;;;5.10;;
26588;SDS011;14235;48.532;8.722;2024-01-06T00:35:47;6.00;;;4.43;;
26588;SDS011;14235;48.532;8.722;2024-01-06T00:38:13;6.30;;;4.47;;
26588;SDS011;14235;48.532;8.722;2024-01-06T00:40:39;6.47;;;5.03;;
26588;SDS011;14235;48.532;8.722;2024-01-06T00:43:05;7.10;;;5.88;;
26588;SDS011;14235;48.532;8.722;2024-01-06T00:45:31;8.07;;;5.70;;
26588;SDS011;14235;48.532;8.722;2024-01-06T00:47:57;8.85;;;6.03;;
26588;SDS011;14235;48.532;8.722;2024-01-06T00:50:23;7.53;;;5.72;;
26588;SDS011;14235;48.532;8.722;2024-01-06T00:52:49;6.97;;;4.78;;
26588;SDS011;14235;48.532;8.722;2024-01-06T00:55:19;6.18;;;4.70;;
26588;SDS011;14235;48.532;8.722;2024-01-06T00:57:45;6.60;;;4.53;;
26588;SDS011;14235;48.532;8.722;2024-01-06T01:00:11;6.57;;;4.57;;
26588;SDS011;14235;48.532;8.722;2024-01-06T01:02:37;7.03;;;4.95;;
26588;SDS011;14235;48.532;8.722;2024-01-06T01:05:03;6.43;;;4.47;;
26588;SDS011;14235;48.532;8.722;2024-01-06T01:07:29;5.18;;;4.38;;
26588;SDS011;14235;48.532;8.722;2024-01-06T01:09:55;7.13;;;5.07;;
26588;SDS011;14235;48.532;8.722;2024-01-06T01:12:22;8.13;;;4.93;;
26588;SDS011;14235;48.532;8.722;2024-01-06T01:14:49;4.55;;;4.00;;
26588;SDS011;14235;48.532;8.722;2024-01-06T01:17:15;4.22;;;3.83;;
26588;SDS011;14235;48.532;8.722;2024-01-06T01:19:41;5.30;;;3.90;;
26588;SDS011;14235;48.532;8.722;2024-01-06T01:22:07;4.13;;;3.47;;
26588;SDS011;14235;48.532;8.722;2024-01-06T01:24:34;4.05;;;3.65;;
26588;SDS011;14235;48.532;8.722;2024-01-06T01:27:00;4.53;;;3.60;;
26588;SDS011;14235;48.532;8.722;2024-01-06T01:29:26;4.05;;;3.75;;
26588;SDS011;14235;48.532;8.722;2024-01-06T01:31:52;4.20;;;3.80;;
26588;SDS011;14235;48.532;8.722;2024-01-06T01:34:18;5.35;;;4.80;;
26588;SDS011;14235;48.532;8.722;2024-01-06T01:36:44;6.90;;;4.32;;
26588;SDS011;14235;48.532;8.722;2024-01-06T01:39:10;5.13;;;3.85;;
26588;SDS011;14235;48.532;8.722;2024-01-06T01:41:36;7.45;;;4.35;;
26588;SDS011;14235;48.532;8.722;2024-01-06T01:44:02;5.57;;;4.55;;
26588;SDS011;14235;48.532;8.722;2024-01-06T01:46:28;5.70;;;4.55;;
26588;SDS011;14235;48.532;8.722;2024-01-06T01:48:55;6.07;;;4.38;;
26588;SDS011;14235;48.532;8.722;2024-01-06T01:51:21;5.55;;;4.20;;
26588;SDS011;14235;48.532;8.722;2024-01-06T01:53:48;4.95;;;4.45;;
26588;SDS011;14235;48.532;8.722;2024-01-06T01:56:15;5.43;;;4.05;;
26588;SDS011;14235;48.532;8.722;2024-01-06T01:58:41;4.13;;;3.78;;
26588;SDS011;14235;48.532;8.722;2024-01-06T02:01:07;4.20;;;3.80;;
26588;SDS011;14235;48.532;8.722;2024-01-06T02:03:33;4.68;;;4.28;;
26588;SDS011;14235;48.532;8.722;2024-01-06T02:06:00;5.35;;;4.72;;
26588;SDS011;14235;48.532;8.722;2024-01-06T02:08:26;5.70;;;4.40;;
26588;SDS011;14235;48.532;8.722;2024-01-06T02:10:55;5.30;;;4.20;;
26588;SDS011;14235;48.532;8.722;2024-01-06T02:13:22;6.65;;;4.45;;
26588;SDS011;14235;48.532;8.722;2024-01-06T02:15:49;7.50;;;4.78;;
26588;SDS011;14235;48.532;8.722;2024-01-06T02:18:15;6.50;;;5.30;;
26588;SDS011;14235;48.532;8.722;2024-01-06T02:20:44;5.78;;;4.63;;
26588;SDS011;14235;48.532;8.722;2024-01-06T02:23:12;6.45;;;4.60;;
26588;SDS011;14235;48.532;8.722;2024-01-06T02:25:38;6.75;;;4.32;;
26588;SDS011;14235;48.532;8.722;2024-01-06T02:28:04;6.22;;;3.65;;
26588;SDS011;14235;48.532;8.722;2024-01-06T02:30:30;4.65;;;3.15;;
26588;SDS011;14235;48.532;8.722;2024-01-06T02:32:56;3.78;;;2.50;;
26588;SDS011;14235;48.532;8.722;2024-01-06T02:35:22;3.70;;;2.90;;
26588;SDS011;14235;48.532;8.722;2024-01-06T02:37:48;3.47;;;3.00;;
26588;SDS011;14235;48.532;8.722;2024-01-06T02:40:14;6.20;;;3.20;;
26588;SDS011;14235;48.532;8.722;2024-01-06T02:42:40;2.95;;;2.67;;
26588;SDS011;14235;48.532;8.722;2024-01-06T02:45:07;3.75;;;3.20;;
26588;SDS011;14235;48.532;8.722;2024-01-06T02:47:34;3.65;;;2.63;;
26588;SDS011;14235;48.532;8.722;2024-01-06T02:50:00;4.65;;;3.40;;
26588;SDS011;14235;48.532;8.722;2024-01-06T02:52:26;3.85;;;3.45;;
26588;SDS011;14235;48.532;8.722;2024-01-06T02:54:52;3.80;;;3.40;;
26588;SDS011;14235;48.532;8.722;2024-01-06T02:57:18;5.43;;;3.95;;
26588;SDS011;14235;48.532;8.722;2024-01-06T02:59:44;5.72;;;3.72;;
26588;SDS011;14235;48.532;8.722;2024-01-06T03:02:10;4.15;;;3.17;;
26588;SDS011;14235;48.532;8.722;2024-01-06T03:04:36;4.38;;;3.40;;
26588;SDS011;14235;48.532;8.722;2024-01-06T03:07:02;4.47;;;3.13;;
26588;SDS011;14235;48.532;8.722;2024-01-06T03:09:28;3.40;;;3.20;;
26588;SDS011;14235;48.532;8.722;2024-01-06T03:11:54;3.13;;;2.83;;
26588;SDS011;14235;48.532;8.722;2024-01-06T03:14:21;5.72;;;3.28;;
26588;SDS011;14235;48.532;8.722;2024-01-06T03:16:47;3.50;;;3.20;;
26588;SDS011;14235;48.532;8.722;2024-01-06T03:19:13;6.45;;;3.67;;
26588;SDS011;14235;48.532;8.722;2024-01-06T03:21:39;4.72;;;3.67;;
26588;SDS011;14235;48.532;8.722;2024-01-06T03:24:06;5.22;;;3.35;;
26588;SDS011;14235;48.532;8.722;2024-01-06T03:26:32;6.53;;;3.78;;
26588;SDS011;14235;48.532;8.722;2024-01-06T03:28:58;3.80;;;3.20;;
26588;SDS011;14235;48.532;8.722;2024-01-06T03:31:24;5.25;;;3.25;;
26588;SDS011;14235;48.532;8.722;2024-01-06T03:33:50;4.20;;;3.53;;
26588;SDS011;14235;48.532;8.722;2024-01-06T03:36:18;4.43;;;3.13;;
26588;SDS011;14235;48.532;8.722;2024-01-06T03:38:44;4.45;;;3.65;;
26588;SDS011;14235;48.532;8.722;2024-01-06T03:41:10;4.13;;;3.25;;
26588;SDS011;14235;48.532;8.722;2024-01-06T03:43:36;5.32;;;3.33;;
26588;SDS011;14235;48.532;8.722;2024-01-06T03:46:02;4.70;;;3.53;;
26588;SDS011;14235;48.532;8.722;2024-01-06T03:48:28;6.28;;;3.65;;
26588;SDS011;14235;48.532;8.722;2024-01-06T03:50:54;3.53;;;3.13;;
26588;SDS011;14235;48.532;8.722;2024-01-06T03:53:20;6.72;;;3.83;;
26588;SDS011;14235;48.532;8.722;2024-01-06T03:55:47;4.50;;;3.00;;
26588;SDS011;14235;48.532;8.722;2024-01-06T03:58:13;4.13;;;3.15;;
26588;SDS011;14235;48.532;8.722;2024-01-06T04:00:39;4.75;;;2.63;;
26588;SDS011;14235;48.532;8.722;2024-01-06T04:03:05;4.00;;;2.50;;
26588;SDS011;14235;48.532;8.722;2024-01-06T04:05:32;3.03;;;2.35;;
26588;SDS011;14235;48.532;8.722;2024-01-06T04:07:57;5.75;;;2.83;;
26588;SDS011;14235;48.532;8.722;2024-01-06T04:10:23;2.88;;;2.60;;
26588;SDS011;14235;48.532;8.722;2024-01-06T04:12:49;2.45;;;2.22;;
26588;SDS011;14235;48.532;8.722;2024-01-06T04:15:15;3.90;;;2.60;;
26588;SDS011;14235;48.532;8.722;2024-01-06T04:17:41;2.10;;;2.00;;
26588;SDS011;14235;48.532;8.722;2024-01-06T04:20:08;2.83;;;2.40;;
26588;SDS011;14235;48.532;8.722;2024-01-06T04:22:37;3.10;;;2.40;;
26588;SDS011;14235;48.532;8.722;2024-01-06T04:25:03;3.03;;;2.40;;
26588;SDS011;14235;48.532;8.722;2024-01-06T04:27:29;2.60;;;2.10;;
26588;SDS011;14235;48.532;8.722;2024-01-06T04:29:56;2.83;;;2.22;;
26588;SDS011;14235;48.532;8.722;2024-01-06T04:32:22;2.90;;;2.45;;
26588;SDS011;14235;48.532;8.722;2024-01-06T04:34:48;4.68;;;2.50;;
26588;SDS011;14235;48.532;8.722;2024-01-06T04:37:14;5.78;;;2.45;;
26588;SDS011;14235;48.532;8.722;2024-01-06T04:39:40;3.92;;;2.20;;
26588;SDS011;14235;48.532;8.722;2024-01-06T04:42:06;2.60;;;2.38;;
26588;SDS011;14235;48.532;8.722;2024-01-06T04:44:32;5.47;;;2.72;;
26588;SDS011;14235;48.532;8.722;2024-01-06T04:46:58;2.35;;;2.15;;
26588;SDS011;14235;48.532;8.722;2024-01-06T04:49:24;4.50;;;2.70;;
26588;SDS011;14235;48.532;8.722;2024-01-06T04:51:50;3.10;;;2.40;;
26588;SDS011;14235;48.532;8.722;2024-01-06T04:54:16;2.38;;;1.85;;
26588;SDS011;14235;48.532;8.722;2024-01-06T04:56:42;2.55;;;2.28;;
26588;SDS011;14235;48.532;8.722;2024-01-06T04:59:08;2.38;;;2.17;;
26588;SDS011;14235;48.532;8.722;2024-01-06T05:01:34;3.83;;;2.55;;
26588;SDS011;14235;48.532;8.722;2024-01-06T05:04:00;2.88;;;2.00;;
26588;SDS011;14235;48.532;8.722;2024-01-06T05:06:25;4.45;;;2.38;;
26588;SDS011;14235;48.532;8.722;2024-01-06T05:08:52;2.13;;;2.03;;
26588;SDS011;14235;48.532;8.722;2024-01-06T05:11:18;2.97;;;2.40;;
26588;SDS011;14235;48.532;8.722;2024-01-06T05:13:44;2.55;;;2.13;;
26588;SDS011;14235;48.532;8.722;2024-01-06T05:16:10;3.63;;;1.90;;
26588;SDS011;14235;48.532;8.722;2024-01-06T05:18:36;3.15;;;1.70;;
26588;SDS011;14235;48.532;8.722;2024-01-06T05:21:02;3.38;;;2.30;;
26588;SDS011;14235;48.532;8.722;2024-01-06T05:23:28;3.80;;;2.28;;
26588;SDS011;14235;48.532;8.722;2024-01-06T05:25:54;5.15;;;2.25;;
26588;SDS011;14235;48.532;8.722;2024-01-06T05:28:20;8.35;;;6.13;;
26588;SDS011;14235;48.532;8.722;2024-01-06T05:30:46;6.70;;;4.28;;
26588;SDS011;14235;48.532;8.722;2024-01-06T05:33:12;6.13;;;4.63;;
26588;SDS011;14235;48.532;8.722;2024-01-06T05:35:40;5.75;;;5.10;;
26588;SDS011;14235;48.532;8.722;2024-01-06T05:38:06;2.90;;;2.25;;
26588;SDS011;14235;48.532;8.722;2024-01-06T05:40:31;4.40;;;2.40;;
26588;SDS011;14235;48.532;8.722;2024-01-06T05:42:57;3.30;;;3.00;;
26588;SDS011;14235;48.532;8.722;2024-01-06T05:45:23;3.70;;;2.33;;
26588;SDS011;14235;48.532;8.722;2024-01-06T05:47:49;2.38;;;2.17;;
26588;SDS011;14235;48.532;8.722;2024-01-06T05:50:16;4.30;;;2.10;;
26588;SDS011;14235;48.532;8.722;2024-01-06T05:52:42;3.03;;;2.10;;
26588;SDS011;14235;48.532;8.722;2024-01-06T05:55:08;2.40;;;1.80;;
26588;SDS011;14235;48.532;8.722;2024-01-06T05:57:34;3.30;;;2.00;;
26588;SDS011;14235;48.532;8.722;2024-01-06T06:00:00;3.28;;;2.30;;
26588;SDS011;14235;48.532;8.722;2024-01-06T06:02:26;2.50;;;2.30;;
26588;SDS011;14235;48.532;8.722;2024-01-06T06:04:53;3.33;;;2.03;;
26588;SDS011;14235;48.532;8.722;2024-01-06T06:07:19;2.15;;;2.05;;
26588;SDS011;14235;48.532;8.722;2024-01-06T06:09:45;2.40;;;2.20;;
26588;SDS011;14235;48.532;8.722;2024-01-06T06:12:13;4.95;;;4.45;;
26588;SDS011;14235;48.532;8.722;2024-01-06T06:14:39;4.32;;;2.80;;
26588;SDS011;14235;48.532;8.722;2024-01-06T06:17:05;3.50;;;2.90;;
26588;SDS011;14235;48.532;8.722;2024-01-06T06:19:31;4.93;;;2.67;;
26588;SDS011;14235;48.532;8.722;2024-01-06T06:21:57;2.63;;;2.00;;
26588;SDS011;14235;48.532;8.722;2024-01-06T06:24:23;3.55;;;2.08;;
26588;SDS011;14235;48.532;8.722;2024-01-06T06:26:49;3.03;;;2.05;;
26588;SDS011;14235;48.532;8.722;2024-01-06T06:29:15;2.80;;;2.50;;
26588;SDS011;14235;48.532;8.722;2024-01-06T06:31:41;3.45;;;2.60;;
26588;SDS011;14235;48.532;8.722;2024-01-06T06:34:11;4.55;;;2.88;;
26588;SDS011;14235;48.532;8.722;2024-01-06T06:36:37;2.13;;;1.98;;
26588;SDS011;14235;48.532;8.722;2024-01-06T06:39:03;1.90;;;1.80;;
26588;SDS011;14235;48.532;8.722;2024-01-06T06:41:29;3.25;;;2.47;;
26588;SDS011;14235;48.532;8.722;2024-01-06T06:43:57;2.25;;;1.70;;
26588;SDS011;14235;48.532;8.722;2024-01-06T06:46:23;1.95;;;1.70;;
26588;SDS011;14235;48.532;8.722;2024-01-06T06:48:49;2.38;;;1.67;;
26588;SDS011;14235;48.532;8.722;2024-01-06T06:51:15;1.65;;;1.50;;
26588;SDS011;14235;48.532;8.722;2024-01-06T06:53:41;1.95;;;1.77;;
26588;SDS011;14235;48.532;8.722;2024-01-06T06:56:07;2.33;;;1.80;;
26588;SDS011;14235;48.532;8.722;2024-01-06T06:58:34;1.95;;;1.52;;
26588;SDS011;14235;48.532;8.722;2024-01-06T07:01:00;2.20;;;2.00;;
26588;SDS011;14235;48.532;8.722;2024-01-06T07:03:26;3.35;;;1.52;;
26588;SDS011;14235;48.532;8.722;2024-01-06T07:05:52;1.63;;;1.50;;
26588;SDS011;14235;48.532;8.722;2024-01-06T07:08:18;1.67;;;1.58;;
26588;SDS011;14235;48.532;8.722;2024-01-06T07:10:44;3.50;;;1.60;;
26588;SDS011;14235;48.532;8.722;2024-01-06T07:13:10;2.00;;;1.83;;
26588;SDS011;14235;48.532;8.722;2024-01-06T07:15:36;3.33;;;2.00;;
26588;SDS011;14235;48.532;8.722;2024-01-06T07:18:02;2.75;;;1.67;;
26588;SDS011;14235;48.532;8.722;2024-01-06T07:20:28;1.70;;;1.60;;
26588;SDS011;14235;48.532;8.722;2024-01-06T07:22:54;2.00;;;1.48;;
26588;SDS011;14235;48.532;8.722;2024-01-06T07:25:20;3.67;;;1.40;;
26588;SDS011;14235;48.532;8.722;2024-01-06T07:27:46;1.58;;;1.42;;
26588;SDS011;14235;48.532;8.722;2024-01-06T07:30:12;1.77;;;1.50;;
26588;SDS011;14235;48.532;8.722;2024-01-06T07:32:41;4.47;;;1.70;;
26588;SDS011;14235;48.532;8.722;2024-01-06T07:35:07;1.55;;;1.45;;
26588;SDS011;14235;48.532;8.722;2024-01-06T07:37:33;1.90;;;1.67;;
26588;SDS011;14235;48.532;8.722;2024-01-06T07:39:59;3.42;;;3.13;;
26588;SDS011;14235;48.532;8.722;2024-01-06T07:42:26;7.60;;;4.68;;
26588;SDS011;14235;48.532;8.722;2024-01-06T07:44:52;6.20;;;4.38;;
26588;SDS011;14235;48.532;8.722;2024-01-06T07:47:18;5.03;;;4.00;;
26588;SDS011;14235;48.532;8.722;2024-01-06T07:49:44;3.03;;;2.72;;
26588;SDS011;14235;48.532;8.722;2024-01-06T07:52:11;2.08;;;1.88;;
26588;SDS011;14235;48.532;8.722;2024-01-06T07:54:38;3.05;;;1.60;;
26588;SDS011;14235;48.532;8.722;2024-01-06T07:57:04;2.05;;;1.17;;
26588;SDS011;14235;48.532;8.722;2024-01-06T07:59:30;3.10;;;1.77;;
26588;SDS011;14235;48.532;8.722;2024-01-06T08:01:56;1.58;;;1.48;;
26588;SDS011;14235;48.532;8.722;2024-01-06T08:04:23;1.85;;;1.73;;
26588;SDS011;14235;48.532;8.722;2024-01-06T08:06:49;1.55;;;1.45;;
26588;SDS011;14235;48.532;8.722;2024-01-06T08:09:15;2.25;;;1.50;;
26588;SDS011;14235;48.532;8.722;2024-01-06T08:11:41;1.33;;;1.23;;
26588;SDS011;14235;48.532;8.722;2024-01-06T08:14:10;2.78;;;2.22;;
26588;SDS011;14235;48.532;8.722;2024-01-06T08:16:36;5.85;;;2.20;;
26588;SDS011;14235;48.532;8.722;2024-01-06T08:19:02;4.18;;;2.47;;
26588;SDS011;14235;48.532;8.722;2024-01-06T08:21:28;3.15;;;1.98;;
26588;SDS011;14235;48.532;8.722;2024-01-06T08:23:54;3.45;;;1.90;;
26588;SDS011;14235;48.532;8.722;2024-01-06T08:26:21;5.18;;;2.03;;
26588;SDS011;14235;48.532;8.722;2024-01-06T08:28:47;3.22;;;2.10;;
26588;SDS011;14235;48.532;8.722;2024-01-06T08:31:13;3.80;;;2.40;;
26588;SDS011;14235;48.532;8.722;2024-01-06T08:33:39;5.20;;;2.65;;
26588;SDS011;14235;48.532;8.722;2024-01-06T08:36:05;5.80;;;2.67;;
26588;SDS011;14235;48.532;8.722;2024-01-06T08:38:31;3.17;;;2.30;;
26588;SDS011;14235;48.532;8.722;2024-01-06T08:40:57;2.40;;;2.17;;
26588;SDS011;14235;48.532;8.722;2024-01-06T08:43:23;2.58;;;2.38;;
26588;SDS011;14235;48.532;8.722;2024-01-06T08:45:49;4.20;;;3.08;;
26588;SDS011;14235;48.532;8.722;2024-01-06T08:48:16;3.95;;;3.60;;
26588;SDS011;14235;48.532;8.722;2024-01-06T08:50:43;3.40;;;2.08;;
26588;SDS011;14235;48.532;8.722;2024-01-06T08:53:10;2.15;;;1.98;;
26588;SDS011;14235;48.532;8.722;2024-01-06T08:55:36;5.35;;;2.13;;
26588;SDS011;14235;48.532;8.722;2024-01-06T08:58:02;2.00;;;1.80;;
26588;SDS011;14235;48.532;8.722;2024-01-06T09:00:28;1.50;;;1.40;;
26588;SDS011;14235;48.532;8.722;2024-01-06T09:02:54;3.45;;;1.50;;
26588;SDS011;14235;48.532;8.722;2024-01-06T09:05:20;1.75;;;1.63;;
26588;SDS011;14235;48.532;8.722;2024-01-06T09:07:46;5.55;;;2.33;;
26588;SDS011;14235;48.532;8.722;2024-01-06T09:10:15;1.75;;;1.52;;
26588;SDS011;14235;48.532;8.722;2024-01-06T09:12:41;2.92;;;1.40;;
26588;SDS011;14235;48.532;8.722;2024-01-06T09:15:08;2.03;;;1.70;;
26588;SDS011;14235;48.532;8.722;2024-01-06T09:17:34;1.70;;;1.60;;
26588;SDS011;14235;48.532;8.722;2024-01-06T09:20:00;3.67;;;1.92;;
26588;SDS011;14235;48.532;8.722;2024-01-06T09:22:27;2.60;;;2.40;;
26588;SDS011;14235;48.532;8.722;2024-01-06T09:24:53;4.60;;;2.80;;
26588;SDS011;14235;48.532;8.722;2024-01-06T09:27:19;4.57;;;2.78;;
26588;SDS011;14235;48.532;8.722;2024-01-06T09:29:45;4.53;;;3.83;;
26588;SDS011;14235;48.532;8.722;2024-01-06T09:32:11;6.00;;;4.40;;
26588;SDS011;14235;48.532;8.722;2024-01-06T09:34:38;5.60;;;4.07;;
26588;SDS011;14235;48.532;8.722;2024-01-06T09:37:04;5.53;;;3.70;;
26588;SDS011;14235;48.532;8.722;2024-01-06T09:39:30;5.68;;;3.00;;
26588;SDS011;14235;48.532;8.722;2024-01-06T09:41:56;3.28;;;2.97;;
26588;SDS011;14235;48.532;8.722;2024-01-06T09:44:23;3.17;;;2.70;;
26588;SDS011;14235;48.532;8.722;2024-01-06T09:46:49;3.63;;;2.67;;
26588;SDS011;14235;48.532;8.722;2024-01-06T09:49:22;7.85;;;5.95;;
26588;SDS011;14235;48.532;8.722;2024-01-06T09:51:49;2.75;;;1.60;;
26588;SDS011;14235;48.532;8.722;2024-01-06T09:54:16;1.77;;;1.30;;
26588;SDS011;14235;48.532;8.722;2024-01-06T09:56:46;4.60;;;2.45;;
26588;SDS011;14235;48.532;8.722;2024-01-06T09:59:12;3.90;;;2.70;;
26588;SDS011;14235;48.532;8.722;2024-01-06T10:01:39;2.55;;;1.80;;
26588;SDS011;14235;48.532;8.722;2024-01-06T10:04:05;1.80;;;1.70;;
26588;SDS011;14235;48.532;8.722;2024-01-06T10:06:31;2.60;;;1.10;;
26588;SDS011;14235;48.532;8.722;2024-01-06T10:08:58;1.63;;;1.23;;
26588;SDS011;14235;48.532;8.722;2024-01-06T10:11:25;1.45;;;1.20;;
26588;SDS011;14235;48.532;8.722;2024-01-06T10:13:59;0.80;;;0.80;;
26588;SDS011;14235;48.532;8.722;2024-01-06T10:16:47;0.90;;;0.90;;
26588;SDS011;14235;48.532;8.722;2024-01-06T10:19:14;0.80;;;0.80;;
26588;SDS011;14235;48.532;8.722;2024-01-06T10:21:40;1.42;;;0.90;;
26588;SDS011;14235;48.532;8.722;2024-01-06T10:24:28;0.80;;;0.80;;
26588;SDS011;14235;48.532;8.722;2024-01-06T10:30:11;1.52;;;1.02;;
26588;SDS011;14235;48.532;8.722;2024-01-06T10:32:39;1.10;;;1.00;;
26588;SDS011;14235;48.532;8.722;2024-01-06T10:35:05;1.30;;;1.20;;
26588;SDS011;14235;48.532;8.722;2024-01-06T10:37:31;0.60;;;0.60;;
26588;SDS011;14235;48.532;8.722;2024-01-06T10:40:10;0.90;;;0.90;;
26588;SDS011;14235;48.532;8.722;2024-01-06T10:42:37;1.05;;;0.93;;
26588;SDS011;14235;48.532;8.722;2024-01-06T10:45:07;0.80;;;0.80;;
26588;SDS011;14235;48.532;8.722;2024-01-06T10:47:34;1.10;;;1.00;;
26588;SDS011;14235;48.532;8.722;2024-01-06T10:50:01;0.82;;;0.80;;
26588;SDS011;14235;48.532;8.722;2024-01-06T10:52:27;1.98;;;1.42;;
26588;SDS011;14235;48.532;8.722;2024-01-06T10:55:03;3.13;;;1.15;;
26588;SDS011;14235;48.532;8.722;2024-01-06T10:58:02;0.70;;;0.70;;
26588;SDS011;14235;48.532;8.722;2024-01-06T11:05:59;0.60;;;0.60;;
26588;SDS011;14235;48.532;8.722;2024-01-06T11:08:49;0.60;;;0.60;;
26588;SDS011;14235;48.532;8.722;2024-01-06T11:11:28;0.93;;;0.50;;
26588;SDS011;14235;48.532;8.722;2024-01-06T11:14:16;1.70;;;0.70;;
26588;SDS011;14235;48.532;8.722;2024-01-06T11:16:41;0.80;;;0.80;;
26588;SDS011;14235;48.532;8.722;2024-01-06T11:21:53;0.60;;;0.60;;
26588;SDS011;14235;48.532;8.722;2024-01-06T11:24:19;1.08;;;0.52;;
26588;SDS011;14235;48.532;8.722;2024-01-06T11:26:49;0.98;;;0.40;;
26588;SDS011;14235;48.532;8.722;2024-01-06T11:29:15;0.63;;;0.63;;
26588;SDS011;14235;48.532;8.722;2024-01-06T11:31:41;0.68;;;0.65;;
26588;SDS011;14235;48.532;8.722;2024-01-06T11:34:15;0.40;;;0.40;;
26588;SDS011;14235;48.532;8.722;2024-01-06T11:36:44;0.40;;;0.40;;
26588;SDS011;14235;48.532;8.722;2024-01-06T11:42:13;0.40;;;0.40;;
26588;SDS011;14235;48.532;8.722;2024-01-06T11:47:36;0.40;;;0.40;;
26588;SDS011;14235;48.532;8.722;2024-01-06T11:50:06;0.82;;;0.82;;
26588;SDS011;14235;48.532;8.722;2024-01-06T11:52:34;0.45;;;0.45;;
26588;SDS011;14235;48.532;8.722;2024-01-06T11:55:00;0.50;;;0.50;;
26588;SDS011;14235;48.532;8.722;2024-01-06T11:57:27;0.90;;;0.70;;
26588;SDS011;14235;48.532;8.722;2024-01-06T11:59:53;0.75;;;0.60;;
26588;SDS011;14235;48.532;8.722;2024-01-06T12:02:19;0.75;;;0.75;;
26588;SDS011;14235;48.532;8.722;2024-01-06T12:04:50;1.58;;;0.80;;
26588;SDS011;14235;48.532;8.722;2024-01-06T12:07:17;0.70;;;0.70;;
26588;SDS011;14235;48.532;8.722;2024-01-06T12:09:44;0.50;;;0.50;;
26588;SDS011;14235;48.532;8.722;2024-01-06T12:12:10;0.65;;;0.65;;
26588;SDS011;14235;48.532;8.722;2024-01-06T12:14:38;0.60;;;0.60;;
26588;SDS011;14235;48.532;8.722;2024-01-06T12:17:07;0.57;;;0.57;;
26588;SDS011;14235;48.532;8.722;2024-01-06T12:19:33;0.60;;;0.60;;
26588;SDS011;14235;48.532;8.722;2024-01-06T12:21:59;0.55;;;0.55;;
26588;SDS011;14235;48.532;8.722;2024-01-06T12:24:27;0.47;;;0.47;;
26588;SDS011;14235;48.532;8.722;2024-01-06T12:26:54;0.50;;;0.50;;
26588;SDS011;14235;48.532;8.722;2024-01-06T12:29:21;1.63;;;0.70;;
26588;SDS011;14235;48.532;8.722;2024-01-06T12:31:47;0.70;;;0.70;;
26588;SDS011;14235;48.532;8.722;2024-01-06T12:34:13;0.50;;;0.50;;
26588;SDS011;14235;48.532;8.722;2024-01-06T12:36:39;0.50;;;0.50;;
26588;SDS011;14235;48.532;8.722;2024-01-06T12:39:06;0.32;;;0.32;;
26588;SDS011;14235;48.532;8.722;2024-01-06T12:41:36;0.52;;;0.52;;
26588;SDS011;14235;48.532;8.722;2024-01-06T12:44:03;0.52;;;0.52;;
26588;SDS011;14235;48.532;8.722;2024-01-06T12:46:29;0.73;;;0.73;;
26588;SDS011;14235;48.532;8.722;2024-01-06T12:48:55;0.70;;;0.70;;
26588;SDS011;14235;48.532;8.722;2024-01-06T12:51:21;1.02;;;1.00;;
26588;SDS011;14235;48.532;8.722;2024-01-06T12:53:47;0.85;;;0.77;;
26588;SDS011;14235;48.532;8.722;2024-01-06T12:56:13;0.60;;;0.60;;
26588;SDS011;14235;48.532;8.722;2024-01-06T12:58:40;0.63;;;0.63;;
26588;SDS011;14235;48.532;8.722;2024-01-06T13:01:06;3.30;;;0.57;;
26588;SDS011;14235;48.532;8.722;2024-01-06T13:03:32;0.70;;;0.70;;
26588;SDS011;14235;48.532;8.722;2024-01-06T13:05:58;0.63;;;0.50;;
26588;SDS011;14235;48.532;8.722;2024-01-06T13:08:25;0.60;;;0.60;;
26588;SDS011;14235;48.532;8.722;2024-01-06T13:10:51;0.60;;;0.60;;
26588;SDS011;14235;48.532;8.722;2024-01-06T13:13:17;0.57;;;0.57;;
26588;SDS011;14235;48.532;8.722;2024-01-06T13:15:43;0.50;;;0.50;;
26588;SDS011;14235;48.532;8.722;2024-01-06T13:18:11;0.77;;;0.40;;
26588;SDS011;14235;48.532;8.722;2024-01-06T13:20:37;0.30;;;0.30;;
26588;SDS011;14235;48.532;8.722;2024-01-06T13:23:05;0.30;;;0.30;;
26588;SDS011;14235;48.532;8.722;2024-01-06T13:25:31;0.40;;;0.40;;
26588;SDS011;14235;48.532;8.722;2024-01-06T13:27:57;1.95;;;0.40;;
26588;SDS011;14235;48.532;8.722;2024-01-06T13:30:24;0.70;;;0.70;;
26588;SDS011;14235;48.532;8.722;2024-01-06T13:32:50;0.60;;;0.60;;
26588;SDS011;14235;48.532;8.722;2024-01-06T13:35:19;1.13;;;1.02;;
26588;SDS011;14235;48.532;8.722;2024-01-06T13:37:45;1.00;;;1.00;;
26588;SDS011;14235;48.532;8.722;2024-01-06T13:40:13;0.70;;;0.70;;
26588;SDS011;14235;48.532;8.722;2024-01-06T13:42:39;1.05;;;1.05;;
26588;SDS011;14235;48.532;8.722;2024-01-06T13:45:05;1.90;;;0.93;;
26588;SDS011;14235;48.532;8.722;2024-01-06T13:47:31;0.65;;;0.65;;
26588;SDS011;14235;48.532;8.722;2024-01-06T13:49:57;0.30;;;0.30;;
26588;SDS011;14235;48.532;8.722;2024-01-06T13:52:23;0.40;;;0.40;;
26588;SDS011;14235;48.532;8.722;2024-01-06T13:54:49;0.75;;;0.40;;
26588;SDS011;14235;48.532;8.722;2024-01-06T13:57:15;0.30;;;0.30;;
26588;SDS011;14235;48.532;8.722;2024-01-06T13:59:41;0.85;;;0.85;;
26588;SDS011;14235;48.532;8.722;2024-01-06T14:02:08;0.30;;;0.30;;
26588;SDS011;14235;48.532;8.722;2024-01-06T14:04:34;0.85;;;0.85;;
26588;SDS011;14235;48.532;8.722;2024-01-06T14:07:00;0.60;;;0.60;;
26588;SDS011;14235;48.532;8.722;2024-01-06T14:09:27;1.77;;;1.67;;
26588;SDS011;14235;48.532;8.722;2024-01-06T14:11:53;0.60;;;0.60;;
26588;SDS011;14235;48.532;8.722;2024-01-06T14:14:19;1.45;;;0.68;;
26588;SDS011;14235;48.532;8.722;2024-01-06T14:16:45;0.40;;;0.38;;
26588;SDS011;14235;48.532;8.722;2024-01-06T14:19:12;0.45;;;0.45;;
26588;SDS011;14235;48.532;8.722;2024-01-06T14:21:39;0.43;;;0.40;;
26588;SDS011;14235;48.532;8.722;2024-01-06T14:24:05;0.45;;;0.45;;
26588;SDS011;14235;48.532;8.722;2024-01-06T14:26:32;0.30;;;0.30;;
26588;SDS011;14235;48.532;8.722;2024-01-06T14:28:58;0.88;;;0.50;;
26588;SDS011;14235;48.532;8.722;2024-01-06T14:31:24;0.47;;;0.47;;
26588;SDS011;14235;48.532;8.722;2024-01-06T14:33:52;0.40;;;0.40;;
26588;SDS011;14235;48.532;8.722;2024-01-06T14:36:18;0.52;;;0.52;;
26588;SDS011;14235;48.532;8.722;2024-01-06T14:38:44;0.82;;;0.60;;
26588;SDS011;14235;48.532;8.722;2024-01-06T14:41:10;0.50;;;0.50;;
26588;SDS011;14235;48.532;8.722;2024-01-06T14:43:36;0.65;;;0.63;;
26588;SDS011;14235;48.532;8.722;2024-01-06T14:46:02;0.47;;;0.47;;
26588;SDS011;14235;48.532;8.722;2024-01-06T14:48:28;0.60;;;0.60;;
26588;SDS011;14235;48.532;8.722;2024-01-06T14:50:54;0.60;;;0.60;;
26588;SDS011;14235;48.532;8.722;2024-01-06T14:53:20;0.60;;;0.60;;
26588;SDS011;14235;48.532;8.722;2024-01-06T14:55:46;0.60;;;0.60;;
26588;SDS011;14235;48.532;8.722;2024-01-06T14:58:12;1.40;;;0.63;;
26588;SDS011;14235;48.532;8.722;2024-01-06T15:00:37;0.55;;;0.55;;
26588;SDS011;14235;48.532;8.722;2024-01-06T15:03:03;1.75;;;0.50;;